Time,TemperatureF,DewpointF,PressureIn,WindDirection,WindDirectionDegrees,WindSpeedMPH,WindSpeedGustMPH,Humidity,HourlyPrecipIn,Conditions,Clouds,dailyrainin,SoftwareType,DateUTC
2013-01-27 00:00:00,12.5,-4.4,30.20,WNW,292,2.0,7.0,46,0.00,,,-99.99,WeatherLink 5.5,2013-01-27 05:00:00,
2013-01-27 00:05:00,12.3,-4.1,30.20,NW,315,3.0,9.0,47,0.00,,,-99.99,WeatherLink 5.5,2013-01-27 05:05:00,
2013-01-27 00:10:00,12.3,-4.1,30.20,WNW,292,4.0,10.0,47,0.00,,,-99.99,WeatherLink 5.5,2013-01-27 05:10:00,
2013-01-27 00:15:00,12.3,-4.1,30.20,WNW,292,4.0,10.0,47,0.00,,,-99.99,WeatherLink 5.5,2013-01-27 05:15:00,
2013-01-27 00:20:00,12.3,-3.7,30.20,West,270,1.0,6.0,48,0.00,,,-99.99,WeatherLink 5.5,2013-01-27 05:20:00,
2013-01-27 00:25:00,12.3,-3.7,30.20,WNW,292,2.0,10.0,48,0.00,,,-99.99,WeatherLink 5.5,2013-01-27 05:25:00,
2013-01-27 00:30:00,12.3,-3.7,30.20,WNW,292,2.0,10.0,48,0.00,,,-99.99,WeatherLink 5.5,2013-01-27 05:30:00,
2013-01-27 00:35:00,12.3,-3.3,30.19,West,270,2.0,9.0,49,0.00,,,-99.99,WeatherLink 5.5,2013-01-27 05:35:00,
2013-01-27 00:40:00,12.3,-3.3,30.19,WNW,292,2.0,10.0,49,0.00,,,-99.99,WeatherLink 5.5,2013-01-27 05:40:00,
2013-01-27 00:45:00,12.3,-3.3,30.19,WNW,292,2.0,10.0,49,0.00,,,-99.99,WeatherLink 5.5,2013-01-27 05:45:00,
2013-01-27 00:50:00,12.1,-3.4,30.20,WNW,292,1.0,6.0,49,0.00,,,-99.99,WeatherLink 5.5,2013-01-27 05:50:00,
2013-01-27 00:55:00,12.1,-3.4,30.20,WNW,292,2.0,9.0,49,0.00,,,-99.99,WeatherLink 5.5,2013-01-27 05:55:00,
2013-01-27 01:00:00,12.1,-3.4,30.20,WNW,292,2.0,9.0,49,0.00,,,-99.99,WeatherLink 5.5,2013-01-27 06:00:00,
2013-01-27 01:05:00,12.1,-3.0,30.21,NW,315,1.0,8.0,50,0.00,,,-99.99,WeatherLink 5.5,2013-01-27 06:05:00,
2013-01-27 01:10:00,12.0,-3.1,30.21,NW,315,1.0,11.0,50,0.00,,,-99.99,WeatherLink 5.5,2013-01-27 06:10:00,
2013-01-27 01:15:00,12.0,-3.1,30.21,NW,315,1.0,11.0,50,0.00,,,-99.99,WeatherLink 5.5,2013-01-27 06:15:00,
2013-01-27 01:20:00,11.8,-3.3,30.22,WNW,292,0.0,2.0,50,0.00,,,-99.99,WeatherLink 5.5,2013-01-27 06:20:00,
2013-01-27 01:25:00,11.8,-2.9,30.22,WNW,292,0.0,4.0,51,0.00,,,-99.99,WeatherLink 5.5,2013-01-27 06:25:00,
2013-01-27 01:30:00,11.8,-2.9,30.22,WNW,292,0.0,4.0,51,0.00,,,-99.99,WeatherLink 5.5,2013-01-27 06:30:00,
2013-01-27 01:35:00,11.6,-2.7,30.22,NW,315,1.0,6.0,52,0.00,,,-99.99,WeatherLink 5.5,2013-01-27 06:35:00,
2013-01-27 01:40:00,11.8,-2.5,30.22,WNW,292,2.0,11.0,52,0.00,,,-99.99,WeatherLink 5.5,2013-01-27 06:40:00,
2013-01-27 01:45:00,11.8,-2.5,30.22,WNW,292,2.0,11.0,52,0.00,,,-99.99,WeatherLink 5.5,2013-01-27 06:45:00,
2013-01-27 01:50:00,11.8,-2.1,30.22,WSW,247,1.0,10.0,53,0.00,,,-99.99,WeatherLink 5.5,2013-01-27 06:50:00,
2013-01-27 01:55:00,11.8,-1.3,30.22,West,270,2.0,9.0,55,0.00,,,-99.99,WeatherLink 5.5,2013-01-27 06:55:00,
2013-01-27 02:00:00,11.8,-1.3,30.22,West,270,2.0,9.0,55,0.00,,,-99.99,WeatherLink 5.5,2013-01-27 07:00:00,
2013-01-27 02:05:00,12.0,-2.3,30.23,WSW,247,1.0,7.0,52,0.00,,,-99.99,WeatherLink 5.5,2013-01-27 07:05:00,
2013-01-27 02:10:00,11.8,-2.5,30.23,West,270,0.0,4.0,52,0.00,,,-99.99,WeatherLink 5.5,2013-01-27 07:10:00,
2013-01-27 02:15:00,11.8,-2.5,30.23,West,270,0.0,4.0,52,0.00,,,-99.99,WeatherLink 5.5,2013-01-27 07:15:00,
2013-01-27 02:20:00,11.8,-2.5,30.24,West,270,1.0,4.0,52,0.00,,,-99.99,WeatherLink 5.5,2013-01-27 07:20:00,
2013-01-27 02:25:00,11.6,-2.3,30.24,West,270,1.0,6.0,53,0.00,,,-99.99,WeatherLink 5.5,2013-01-27 07:25:00,
2013-01-27 02:30:00,11.6,-2.3,30.24,West,270,1.0,6.0,53,0.00,,,-99.99,WeatherLink 5.5,2013-01-27 07:30:00,
2013-01-27 02:35:00,11.8,-2.1,30.24,WNW,292,3.0,11.0,53,0.00,,,-99.99,WeatherLink 5.5,2013-01-27 07:35:00,
2013-01-27 02:40:00,11.8,-2.1,30.24,WNW,292,2.0,7.0,53,0.00,,,-99.99,WeatherLink 5.5,2013-01-27 07:40:00,
2013-01-27 02:45:00,11.8,-2.1,30.24,WNW,292,2.0,7.0,53,0.00,,,-99.99,WeatherLink 5.5,2013-01-27 07:45:00,
2013-01-27 02:50:00,12.0,-1.9,30.24,WNW,292,2.0,7.0,53,0.00,,,-99.99,WeatherLink 5.5,2013-01-27 07:50:00,
2013-01-27 02:55:00,12.1,-1.8,30.24,WNW,292,3.0,9.0,53,0.00,,,-99.99,WeatherLink 5.5,2013-01-27 07:55:00,
2013-01-27 03:00:00,12.1,-1.8,30.24,WNW,292,3.0,9.0,53,0.00,,,-99.99,WeatherLink 5.5,2013-01-27 08:00:00,
2013-01-27 03:05:00,12.1,-1.8,30.24,WNW,292,3.0,8.0,53,0.00,,,-99.99,WeatherLink 5.5,2013-01-27 08:05:00,
2013-01-27 03:10:00,12.1,-1.8,30.24,West,270,5.0,10.0,53,0.00,,,-99.99,WeatherLink 5.5,2013-01-27 08:10:00,
2013-01-27 03:15:00,12.1,-1.8,30.24,West,270,5.0,10.0,53,0.00,,,-99.99,WeatherLink 5.5,2013-01-27 08:15:00,
2013-01-27 03:20:00,12.1,-1.8,30.24,WNW,292,2.0,9.0,53,0.00,,,-99.99,WeatherLink 5.5,2013-01-27 08:20:00,
2013-01-27 03:25:00,12.1,-1.4,30.24,WNW,292,1.0,6.0,54,0.00,,,-99.99,WeatherLink 5.5,2013-01-27 08:25:00,
2013-01-27 03:30:00,12.1,-1.4,30.24,WNW,292,1.0,6.0,54,0.00,,,-99.99,WeatherLink 5.5,2013-01-27 08:30:00,
2013-01-27 03:35:00,12.1,-1.8,30.24,NW,315,1.0,6.0,53,0.00,,,-99.99,WeatherLink 5.5,2013-01-27 08:35:00,
2013-01-27 03:40:00,12.0,-1.5,30.24,WNW,292,2.0,6.0,54,0.00,,,-99.99,WeatherLink 5.5,2013-01-27 08:40:00,
2013-01-27 03:45:00,12.0,-1.5,30.24,WNW,292,2.0,6.0,54,0.00,,,-99.99,WeatherLink 5.5,2013-01-27 08:45:00,
2013-01-27 03:50:00,11.8,-1.7,30.25,West,270,1.0,2.0,54,0.00,,,-99.99,WeatherLink 5.5,2013-01-27 08:50:00,
2013-01-27 03:55:00,11.8,-1.7,30.25,West,270,1.0,4.0,54,0.00,,,-99.99,WeatherLink 5.5,2013-01-27 08:55:00,
2013-01-27 04:00:00,11.8,-1.7,30.25,West,270,1.0,4.0,54,0.00,,,-99.99,WeatherLink 5.5,2013-01-27 09:00:00,
2013-01-27 04:05:00,11.8,-1.7,30.25,West,270,1.0,6.0,54,0.00,,,-99.99,WeatherLink 5.5,2013-01-27 09:05:00,
2013-01-27 04:10:00,11.6,-1.9,30.25,West,270,0.0,2.0,54,0.00,,,-99.99,WeatherLink 5.5,2013-01-27 09:10:00,
2013-01-27 04:15:00,11.6,-1.9,30.25,West,270,0.0,2.0,54,0.00,,,-99.99,WeatherLink 5.5,2013-01-27 09:15:00,
2013-01-27 04:20:00,11.4,-2.0,30.26,WSW,247,1.0,7.0,54,0.00,,,-99.99,WeatherLink 5.5,2013-01-27 09:20:00,
2013-01-27 04:25:00,11.4,-2.0,30.26,West,270,1.0,6.0,54,0.00,,,-99.99,WeatherLink 5.5,2013-01-27 09:25:00,
2013-01-27 04:30:00,11.4,-2.0,30.26,West,270,1.0,6.0,54,0.00,,,-99.99,WeatherLink 5.5,2013-01-27 09:30:00,
2013-01-27 04:35:00,11.3,-1.8,30.26,WSW,247,1.0,4.0,55,0.00,,,-99.99,WeatherLink 5.5,2013-01-27 09:35:00,
2013-01-27 04:40:00,11.4,-1.7,30.26,West,270,0.0,8.0,55,0.00,,,-99.99,WeatherLink 5.5,2013-01-27 09:40:00,
2013-01-27 04:45:00,11.4,-1.7,30.26,West,270,0.0,8.0,55,0.00,,,-99.99,WeatherLink 5.5,2013-01-27 09:45:00,
2013-01-27 04:50:00,11.3,-1.0,30.27,West,270,0.0,1.0,57,0.00,,,-99.99,WeatherLink 5.5,2013-01-27 09:50:00,
2013-01-27 04:55:00,11.3,-0.3,30.27,West,270,0.0,2.0,59,0.00,,,-99.99,WeatherLink 5.5,2013-01-27 09:55:00,
2013-01-27 05:00:00,11.3,-0.3,30.27,West,270,0.0,2.0,59,0.00,,,-99.99,WeatherLink 5.5,2013-01-27 10:00:00,
2013-01-27 05:05:00,11.1,-1.6,30.27,West,270,0.0,1.0,56,0.00,,,-99.99,WeatherLink 5.5,2013-01-27 10:05:00,
2013-01-27 05:10:00,11.1,-1.6,30.27,West,270,0.0,2.0,56,0.00,,,-99.99,WeatherLink 5.5,2013-01-27 10:10:00,
2013-01-27 05:15:00,11.1,-1.6,30.27,West,270,0.0,2.0,56,0.00,,,-99.99,WeatherLink 5.5,2013-01-27 10:15:00,
2013-01-27 05:20:00,10.8,-1.8,30.27,West,270,0.0,1.0,56,0.00,,,-99.99,WeatherLink 5.5,2013-01-27 10:20:00,
2013-01-27 05:25:00,10.9,-1.7,30.27,WNW,292,1.0,6.0,56,0.00,,,-99.99,WeatherLink 5.5,2013-01-27 10:25:00,
2013-01-27 05:30:00,10.9,-1.7,30.27,WNW,292,1.0,6.0,56,0.00,,,-99.99,WeatherLink 5.5,2013-01-27 10:30:00,
2013-01-27 05:35:00,11.4,-2.0,30.27,WNW,292,2.0,6.0,54,0.00,,,-99.99,WeatherLink 5.5,2013-01-27 10:35:00,
2013-01-27 05:40:00,11.6,-2.3,30.27,WNW,292,2.0,7.0,53,0.00,,,-99.99,WeatherLink 5.5,2013-01-27 10:40:00,
2013-01-27 05:45:00,11.6,-2.3,30.27,WNW,292,2.0,7.0,53,0.00,,,-99.99,WeatherLink 5.5,2013-01-27 10:45:00,
2013-01-27 05:50:00,11.8,-2.1,30.28,WNW,292,1.0,7.0,53,0.00,,,-99.99,WeatherLink 5.5,2013-01-27 10:50:00,
2013-01-27 05:55:00,11.8,-1.7,30.28,NW,315,1.0,4.0,54,0.00,,,-99.99,WeatherLink 5.5,2013-01-27 10:55:00,
2013-01-27 06:00:00,11.8,-1.7,30.28,NW,315,1.0,4.0,54,0.00,,,-99.99,WeatherLink 5.5,2013-01-27 11:00:00,
2013-01-27 06:05:00,11.6,-1.5,30.28,WSW,247,1.0,4.0,55,0.00,,,-99.99,WeatherLink 5.5,2013-01-27 11:05:00,
2013-01-27 06:10:00,11.8,-1.7,30.28,WSW,247,1.0,7.0,54,0.00,,,-99.99,WeatherLink 5.5,2013-01-27 11:10:00,
2013-01-27 06:15:00,11.8,-1.7,30.28,WSW,247,1.0,7.0,54,0.00,,,-99.99,WeatherLink 5.5,2013-01-27 11:15:00,
2013-01-27 06:20:00,11.6,-1.9,30.29,WNW,292,0.0,1.0,54,0.00,,,-99.99,WeatherLink 5.5,2013-01-27 11:20:00,
2013-01-27 06:25:00,11.4,-2.4,30.29,WNW,292,0.0,1.0,53,0.00,,,-99.99,WeatherLink 5.5,2013-01-27 11:25:00,
2013-01-27 06:30:00,11.4,-2.4,30.29,WNW,292,0.0,1.0,53,0.00,,,-99.99,WeatherLink 5.5,2013-01-27 11:30:00,
2013-01-27 06:35:00,11.1,-2.3,30.30,WNW,292,0.0,2.0,54,0.00,,,-99.99,WeatherLink 5.5,2013-01-27 11:35:00,
2013-01-27 06:40:00,10.9,-2.5,30.30,WNW,292,0.0,4.0,54,0.00,,,-99.99,WeatherLink 5.5,2013-01-27 11:40:00,
2013-01-27 06:45:00,10.9,-2.5,30.30,WNW,292,0.0,4.0,54,0.00,,,-99.99,WeatherLink 5.5,2013-01-27 11:45:00,
2013-01-27 06:50:00,10.6,-2.8,30.30,WSW,247,0.0,2.0,54,0.00,,,-99.99,WeatherLink 5.5,2013-01-27 11:50:00,
2013-01-27 06:55:00,10.6,-2.8,30.30,North,-999,0.0,0.0,54,0.00,,,-99.99,WeatherLink 5.5,2013-01-27 11:55:00,
2013-01-27 07:00:00,10.6,-2.8,30.30,North,-999,0.0,0.0,54,0.00,,,-99.99,WeatherLink 5.5,2013-01-27 12:00:00,
2013-01-27 07:05:00,10.2,-2.4,30.31,West,270,0.0,2.0,56,0.00,,,-99.99,WeatherLink 5.5,2013-01-27 12:05:00,
2013-01-27 07:10:00,10.1,-2.5,30.31,North,-999,0.0,0.0,56,0.00,,,-99.99,WeatherLink 5.5,2013-01-27 12:10:00,
2013-01-27 07:15:00,10.1,-2.5,30.31,North,-999,0.0,0.0,56,0.00,,,-99.99,WeatherLink 5.5,2013-01-27 12:15:00,
2013-01-27 07:20:00,9.9,-1.6,30.32,West,270,0.0,4.0,59,0.00,,,-99.99,WeatherLink 5.5,2013-01-27 12:20:00,
2013-01-27 07:25:00,9.9,-0.9,30.32,North,-999,0.0,0.0,61,0.00,,,-99.99,WeatherLink 5.5,2013-01-27 12:25:00,
2013-01-27 07:30:00,9.9,-0.9,30.32,North,-999,0.0,0.0,61,0.00,,,-99.99,WeatherLink 5.5,2013-01-27 12:30:00,
2013-01-27 07:35:00,9.9,-1.6,30.33,West,270,0.0,2.0,59,0.00,,,-99.99,WeatherLink 5.5,2013-01-27 12:35:00,
2013-01-27 07:40:00,10.1,-1.8,30.33,West,270,0.0,2.0,58,0.00,,,-99.99,WeatherLink 5.5,2013-01-27 12:40:00,
2013-01-27 07:45:00,10.1,-1.8,30.33,West,270,0.0,2.0,58,0.00,,,-99.99,WeatherLink 5.5,2013-01-27 12:45:00,
2013-01-27 07:50:00,10.2,-2.4,30.33,North,-999,0.0,0.0,56,0.00,,,-99.99,WeatherLink 5.5,2013-01-27 12:50:00,
2013-01-27 07:55:00,10.8,-2.6,30.33,West,270,0.0,2.0,54,0.00,,,-99.99,WeatherLink 5.5,2013-01-27 12:55:00,
2013-01-27 08:00:00,10.8,-2.6,30.33,West,270,0.0,2.0,54,0.00,,,-99.99,WeatherLink 5.5,2013-01-27 13:00:00,
2013-01-27 08:05:00,11.8,-2.9,30.34,West,270,2.0,7.0,51,0.00,,,-99.99,WeatherLink 5.5,2013-01-27 13:05:00,
2013-01-27 08:10:00,12.3,-3.3,30.34,NW,315,1.0,8.0,49,0.00,,,-99.99,WeatherLink 5.5,2013-01-27 13:10:00,
2013-01-27 08:15:00,12.3,-3.3,30.34,NW,315,1.0,8.0,49,0.00,,,-99.99,WeatherLink 5.5,2013-01-27 13:15:00,
2013-01-27 08:20:00,13.2,-3.3,30.34,WNW,292,2.0,10.0,47,0.00,,,-99.99,WeatherLink 5.5,2013-01-27 13:20:00,
2013-01-27 08:25:00,13.5,-3.5,30.34,NW,315,2.0,7.0,46,0.00,,,-99.99,WeatherLink 5.5,2013-01-27 13:25:00,
2013-01-27 08:30:00,13.5,-3.5,30.34,NW,315,2.0,7.0,46,0.00,,,-99.99,WeatherLink 5.5,2013-01-27 13:30:00,
2013-01-27 08:35:00,14.9,-3.1,30.34,WNW,292,3.0,7.0,44,0.00,,,-99.99,WeatherLink 5.5,2013-01-27 13:35:00,
2013-01-27 08:40:00,15.9,-3.2,30.34,WNW,292,3.0,9.0,42,0.00,,,-99.99,WeatherLink 5.5,2013-01-27 13:40:00,
2013-01-27 08:45:00,15.9,-3.2,30.34,WNW,292,3.0,9.0,42,0.00,,,-99.99,WeatherLink 5.5,2013-01-27 13:45:00,
2013-01-27 08:50:00,16.7,-4.6,30.35,WNW,292,3.0,10.0,38,0.00,,,-99.99,WeatherLink 5.5,2013-01-27 13:50:00,
2013-01-27 08:55:00,17.0,-3.7,30.35,WNW,292,2.0,9.0,39,0.00,,,-99.99,WeatherLink 5.5,2013-01-27 13:55:00,
2013-01-27 09:00:00,17.0,-3.7,30.35,WNW,292,2.0,9.0,39,0.00,,,-99.99,WeatherLink 5.5,2013-01-27 14:00:00,
2013-01-27 09:05:00,17.8,-4.7,30.35,WNW,292,2.0,10.0,36,0.00,,,-99.99,WeatherLink 5.5,2013-01-27 14:05:00,
2013-01-27 09:10:00,18.1,-5.0,30.35,WNW,292,2.0,13.0,35,0.00,,,-99.99,WeatherLink 5.5,2013-01-27 14:10:00,
2013-01-27 09:15:00,18.1,-5.0,30.35,WNW,292,2.0,13.0,35,0.00,,,-99.99,WeatherLink 5.5,2013-01-27 14:15:00,
2013-01-27 09:20:00,18.3,-5.4,30.36,WNW,292,4.0,14.0,34,0.00,,,-99.99,WeatherLink 5.5,2013-01-27 14:20:00,
2013-01-27 09:25:00,18.6,-5.8,30.36,NW,315,3.0,11.0,33,0.00,,,-99.99,WeatherLink 5.5,2013-01-27 14:25:00,
2013-01-27 09:30:00,18.6,-5.8,30.36,NW,315,3.0,11.0,33,0.00,,,-99.99,WeatherLink 5.5,2013-01-27 14:30:00,
2013-01-27 09:35:00,19.4,-5.7,30.37,NW,315,3.0,9.0,32,0.00,,,-99.99,WeatherLink 5.5,2013-01-27 14:35:00,
2013-01-27 09:40:00,19.6,-5.5,30.37,WNW,292,4.0,8.0,32,0.00,,,-99.99,WeatherLink 5.5,2013-01-27 14:40:00,
2013-01-27 09:45:00,19.6,-5.5,30.37,WNW,292,4.0,8.0,32,0.00,,,-99.99,WeatherLink 5.5,2013-01-27 14:45:00,
2013-01-27 09:50:00,20.0,-5.2,30.37,WNW,292,2.0,8.0,32,0.00,,,-99.99,WeatherLink 5.5,2013-01-27 14:50:00,
2013-01-27 09:55:00,20.3,-6.3,30.37,WNW,292,4.0,11.0,30,0.00,,,-99.99,WeatherLink 5.5,2013-01-27 14:55:00,
2013-01-27 10:00:00,20.3,-6.3,30.37,WNW,292,4.0,11.0,30,0.00,,,-99.99,WeatherLink 5.5,2013-01-27 15:00:00,
2013-01-27 10:05:00,20.7,-5.9,30.37,NW,315,1.0,6.0,30,0.00,,,-99.99,WeatherLink 5.5,2013-01-27 15:05:00,
2013-01-27 10:10:00,21.5,-5.9,30.37,WNW,292,1.0,7.0,29,0.00,,,-99.99,WeatherLink 5.5,2013-01-27 15:10:00,
2013-01-27 10:15:00,21.5,-5.9,30.37,WNW,292,1.0,7.0,29,0.00,,,-99.99,WeatherLink 5.5,2013-01-27 15:15:00,
2013-01-27 10:20:00,21.9,-6.3,30.37,WNW,292,2.0,11.0,28,0.00,,,-99.99,WeatherLink 5.5,2013-01-27 15:20:00,
2013-01-27 10:25:00,22.2,-7.6,30.37,WNW,292,4.0,13.0,26,0.00,,,-99.99,WeatherLink 5.5,2013-01-27 15:25:00,
2013-01-27 10:30:00,22.2,-7.6,30.37,WNW,292,4.0,13.0,26,0.00,,,-99.99,WeatherLink 5.5,2013-01-27 15:30:00,
2013-01-27 10:35:00,23.2,-7.5,30.38,WNW,292,2.0,9.0,25,0.00,,,-99.99,WeatherLink 5.5,2013-01-27 15:35:00,
2013-01-27 10:40:00,23.5,-7.2,30.38,WNW,292,2.0,7.0,25,0.00,,,-99.99,WeatherLink 5.5,2013-01-27 15:40:00,
2013-01-27 10:45:00,23.5,-7.2,30.38,WNW,292,2.0,7.0,25,0.00,,,-99.99,WeatherLink 5.5,2013-01-27 15:45:00,
2013-01-27 10:50:00,23.2,-8.3,30.37,WNW,292,6.0,11.0,24,0.00,,,-99.99,WeatherLink 5.5,2013-01-27 15:50:00,
2013-01-27 10:55:00,23.3,-8.2,30.37,WNW,292,5.0,11.0,24,0.00,,,-99.99,WeatherLink 5.5,2013-01-27 15:55:00,
2013-01-27 11:00:00,23.3,-8.2,30.37,WNW,292,5.0,11.0,24,0.00,,,-99.99,WeatherLink 5.5,2013-01-27 16:00:00,
2013-01-27 11:05:00,24.1,-9.3,30.37,NW,315,6.0,13.0,22,0.00,,,-99.99,WeatherLink 5.5,2013-01-27 16:05:00,
2013-01-27 11:10:00,23.9,-9.5,30.37,NW,315,5.0,11.0,22,0.00,,,-99.99,WeatherLink 5.5,2013-01-27 16:10:00,
2013-01-27 11:15:00,23.9,-9.5,30.37,NW,315,5.0,11.0,22,0.00,,,-99.99,WeatherLink 5.5,2013-01-27 16:15:00,
2013-01-27 11:20:00,23.9,-8.6,30.38,NNW,337,5.0,11.0,23,0.00,,,-99.99,WeatherLink 5.5,2013-01-27 16:20:00,
2013-01-27 11:25:00,24.2,-9.3,30.38,NW,315,5.0,8.0,22,0.00,,,-99.99,WeatherLink 5.5,2013-01-27 16:25:00,
2013-01-27 11:30:00,24.2,-9.3,30.38,NW,315,5.0,8.0,22,0.00,,,-99.99,WeatherLink 5.5,2013-01-27 16:30:00,
2013-01-27 11:35:00,24.5,-9.0,30.37,NW,315,3.0,7.0,22,0.00,,,-99.99,WeatherLink 5.5,2013-01-27 16:35:00,
2013-01-27 11:40:00,24.7,-8.8,30.37,NW,315,4.0,9.0,22,0.00,,,-99.99,WeatherLink 5.5,2013-01-27 16:40:00,
2013-01-27 11:45:00,24.7,-8.8,30.37,NW,315,4.0,9.0,22,0.00,,,-99.99,WeatherLink 5.5,2013-01-27 16:45:00,
2013-01-27 11:50:00,24.8,-8.7,30.36,WNW,292,3.0,8.0,22,0.00,,,-99.99,WeatherLink 5.5,2013-01-27 16:50:00,
2013-01-27 11:55:00,24.8,-8.7,30.36,WNW,292,3.0,11.0,22,0.00,,,-99.99,WeatherLink 5.5,2013-01-27 16:55:00,
2013-01-27 12:00:00,24.8,-8.7,30.36,WNW,292,3.0,11.0,22,0.00,,,-99.99,WeatherLink 5.5,2013-01-27 17:00:00,
2013-01-27 12:05:00,25.1,-10.4,30.36,WNW,292,3.0,8.0,20,0.00,,,-99.99,WeatherLink 5.5,2013-01-27 17:05:00,
2013-01-27 12:10:00,25.1,-9.4,30.36,WNW,292,4.0,10.0,21,0.00,,,-99.99,WeatherLink 5.5,2013-01-27 17:10:00,
2013-01-27 12:15:00,25.1,-9.4,30.36,WNW,292,4.0,10.0,21,0.00,,,-99.99,WeatherLink 5.5,2013-01-27 17:15:00,
2013-01-27 12:20:00,25.7,-8.9,30.36,WNW,292,3.0,10.0,21,0.00,,,-99.99,WeatherLink 5.5,2013-01-27 17:20:00,
2013-01-27 12:25:00,25.8,-9.8,30.36,West,270,5.0,15.0,20,0.00,,,-99.99,WeatherLink 5.5,2013-01-27 17:25:00,
2013-01-27 12:30:00,25.8,-9.8,30.36,West,270,5.0,15.0,20,0.00,,,-99.99,WeatherLink 5.5,2013-01-27 17:30:00,
2013-01-27 12:35:00,26.3,-9.4,30.35,WNW,292,6.0,15.0,20,0.00,,,-99.99,WeatherLink 5.5,2013-01-27 17:35:00,
2013-01-27 12:40:00,26.3,-9.4,30.35,NW,315,6.0,11.0,20,0.00,,,-99.99,WeatherLink 5.5,2013-01-27 17:40:00,
2013-01-27 12:45:00,26.3,-9.4,30.35,NW,315,6.0,11.0,20,0.00,,,-99.99,WeatherLink 5.5,2013-01-27 17:45:00,
2013-01-27 12:50:00,26.7,-9.1,30.35,NW,315,5.0,10.0,20,0.00,,,-99.99,WeatherLink 5.5,2013-01-27 17:50:00,
2013-01-27 12:55:00,26.9,-8.9,30.35,WNW,292,4.0,10.0,20,0.00,,,-99.99,WeatherLink 5.5,2013-01-27 17:55:00,
2013-01-27 13:00:00,26.9,-8.9,30.35,WNW,292,4.0,10.0,20,0.00,,,-99.99,WeatherLink 5.5,2013-01-27 18:00:00,
2013-01-27 13:05:00,26.9,-8.9,30.35,WSW,247,6.0,17.0,20,0.00,,,-99.99,WeatherLink 5.5,2013-01-27 18:05:00,
2013-01-27 13:10:00,27.0,-8.8,30.35,WNW,292,6.0,13.0,20,0.00,,,-99.99,WeatherLink 5.5,2013-01-27 18:10:00,
2013-01-27 13:15:00,27.0,-8.8,30.35,WNW,292,6.0,13.0,20,0.00,,,-99.99,WeatherLink 5.5,2013-01-27 18:15:00,
2013-01-27 13:20:00,27.3,-8.6,30.35,NW,315,4.0,13.0,20,0.00,,,-99.99,WeatherLink 5.5,2013-01-27 18:20:00,
2013-01-27 13:25:00,27.5,-8.4,30.35,NW,315,5.0,14.0,20,0.00,,,-99.99,WeatherLink 5.5,2013-01-27 18:25:00,
2013-01-27 13:30:00,27.5,-8.4,30.35,NW,315,5.0,14.0,20,0.00,,,-99.99,WeatherLink 5.5,2013-01-27 18:30:00,
2013-01-27 13:35:00,27.5,-9.5,30.35,NW,315,5.0,13.0,19,0.00,,,-99.99,WeatherLink 5.5,2013-01-27 18:35:00,
2013-01-27 13:40:00,27.8,-9.2,30.35,West,270,3.0,13.0,19,0.00,,,-99.99,WeatherLink 5.5,2013-01-27 18:40:00,
2013-01-27 13:45:00,27.8,-9.2,30.35,West,270,3.0,13.0,19,0.00,,,-99.99,WeatherLink 5.5,2013-01-27 18:45:00,
2013-01-27 13:50:00,28.1,-9.0,30.34,WNW,292,4.0,13.0,19,0.00,,,-99.99,WeatherLink 5.5,2013-01-27 18:50:00,
2013-01-27 13:55:00,28.2,-7.8,30.34,WNW,292,3.0,10.0,20,0.00,,,-99.99,WeatherLink 5.5,2013-01-27 18:55:00,
2013-01-27 14:00:00,28.2,-7.8,30.34,WNW,292,3.0,10.0,20,0.00,,,-99.99,WeatherLink 5.5,2013-01-27 19:00:00,
2013-01-27 14:05:00,28.2,-7.8,30.35,WNW,292,3.0,13.0,20,0.00,,,-99.99,WeatherLink 5.5,2013-01-27 19:05:00,
2013-01-27 14:10:00,28.2,-7.8,30.35,WNW,292,5.0,16.0,20,0.00,,,-99.99,WeatherLink 5.5,2013-01-27 19:10:00,
2013-01-27 14:15:00,28.2,-7.8,30.35,WNW,292,5.0,16.0,20,0.00,,,-99.99,WeatherLink 5.5,2013-01-27 19:15:00,
2013-01-27 14:20:00,28.4,-8.7,30.35,WNW,292,2.0,9.0,19,0.00,,,-99.99,WeatherLink 5.5,2013-01-27 19:20:00,
2013-01-27 14:25:00,28.5,-7.6,30.35,NW,315,2.0,8.0,20,0.00,,,-99.99,WeatherLink 5.5,2013-01-27 19:25:00,
2013-01-27 14:30:00,28.5,-7.6,30.35,NW,315,2.0,8.0,20,0.00,,,-99.99,WeatherLink 5.5,2013-01-27 19:30:00,
2013-01-27 14:35:00,28.5,-8.6,30.34,WNW,292,5.0,11.0,19,0.00,,,-99.99,WeatherLink 5.5,2013-01-27 19:35:00,
2013-01-27 14:40:00,28.5,-7.6,30.34,WNW,292,3.0,10.0,20,0.00,,,-99.99,WeatherLink 5.5,2013-01-27 19:40:00,
2013-01-27 14:45:00,28.5,-7.6,30.34,WNW,292,3.0,10.0,20,0.00,,,-99.99,WeatherLink 5.5,2013-01-27 19:45:00,
2013-01-27 14:50:00,28.4,-7.7,30.35,WNW,292,4.0,10.0,20,0.00,,,-99.99,WeatherLink 5.5,2013-01-27 19:50:00,
2013-01-27 14:55:00,28.4,-8.7,30.35,NW,315,7.0,16.0,19,0.00,,,-99.99,WeatherLink 5.5,2013-01-27 19:55:00,
2013-01-27 15:00:00,28.4,-8.7,30.35,NW,315,3.0,9.0,19,0.00,,,-99.99,WeatherLink 5.5,2013-01-27 20:00:00,
2013-01-27 15:05:00,28.4,-8.7,30.35,NW,315,4.0,9.0,19,0.00,,,-99.99,WeatherLink 5.5,2013-01-27 20:05:00,
2013-01-27 15:10:00,28.5,-8.6,30.35,WNW,292,2.0,9.0,19,0.00,,,-99.99,WeatherLink 5.5,2013-01-27 20:10:00,
2013-01-27 15:15:00,28.5,-9.7,30.34,NW,315,5.0,9.0,18,0.00,,,-99.99,WeatherLink 5.5,2013-01-27 20:15:00,
2013-01-27 15:20:00,28.5,-8.6,30.34,WNW,292,0.0,4.0,19,0.00,,,-99.99,WeatherLink 5.5,2013-01-27 20:20:00,
2013-01-27 15:25:00,28.5,-9.7,30.34,West,270,2.0,8.0,18,0.00,,,-99.99,WeatherLink 5.5,2013-01-27 20:25:00,
2013-01-27 15:30:00,28.4,-9.8,30.35,NW,315,3.0,9.0,18,0.00,,,-99.99,WeatherLink 5.5,2013-01-27 20:30:00,
2013-01-27 15:35:00,28.4,-11.0,30.35,WNW,292,4.0,11.0,17,0.00,,,-99.99,WeatherLink 5.5,2013-01-27 20:35:00,
2013-01-27 15:40:00,28.2,-10.0,30.35,WNW,292,3.0,8.0,18,0.00,,,-99.99,WeatherLink 5.5,2013-01-27 20:40:00,
2013-01-27 15:45:00,28.2,-10.0,30.35,NW,315,3.0,8.0,18,0.00,,,-99.99,WeatherLink 5.5,2013-01-27 20:45:00,
2013-01-27 15:50:00,28.1,-10.1,30.35,NNW,337,2.0,9.0,18,0.00,,,-99.99,WeatherLink 5.5,2013-01-27 20:50:00,
2013-01-27 15:55:00,27.9,-10.2,30.35,WNW,292,2.0,7.0,18,0.00,,,-99.99,WeatherLink 5.5,2013-01-27 20:55:00,
2013-01-27 16:00:00,27.6,-9.4,30.35,NW,315,1.0,6.0,19,0.00,,,-99.99,WeatherLink 5.5,2013-01-27 21:00:00,
2013-01-27 16:05:00,27.5,-10.6,30.35,WNW,292,2.0,9.0,18,0.00,,,-99.99,WeatherLink 5.5,2013-01-27 21:05:00,
2013-01-27 16:10:00,27.3,-10.7,30.35,WNW,292,2.0,7.0,18,0.00,,,-99.99,WeatherLink 5.5,2013-01-27 21:10:00,
2013-01-27 16:15:00,27.2,-10.8,30.36,WNW,292,3.0,11.0,18,0.00,,,-99.99,WeatherLink 5.5,2013-01-27 21:15:00,
2013-01-27 16:20:00,27.2,-9.7,30.36,WNW,292,2.0,8.0,19,0.00,,,-99.99,WeatherLink 5.5,2013-01-27 21:20:00,
2013-01-27 16:25:00,27.0,-8.8,30.36,NW,315,1.0,6.0,20,0.00,,,-99.99,WeatherLink 5.5,2013-01-27 21:25:00,
2013-01-27 16:30:00,26.9,-8.9,30.37,WNW,292,1.0,6.0,20,0.00,,,-99.99,WeatherLink 5.5,2013-01-27 21:30:00,
2013-01-27 16:35:00,26.6,-11.3,30.37,WNW,292,2.0,8.0,18,0.00,,,-99.99,WeatherLink 5.5,2013-01-27 21:35:00,
2013-01-27 16:40:00,26.4,-11.5,30.37,WNW,292,3.0,8.0,18,0.00,,,-99.99,WeatherLink 5.5,2013-01-27 21:40:00,
2013-01-27 16:45:00,26.3,-9.4,30.37,WSW,247,0.0,4.0,20,0.00,,,-99.99,WeatherLink 5.5,2013-01-27 21:45:00,
2013-01-27 16:50:00,26.1,-9.6,30.37,WNW,292,0.0,4.0,20,0.00,,,-99.99,WeatherLink 5.5,2013-01-27 21:50:00,
2013-01-27 16:55:00,26.0,-9.7,30.37,WNW,292,1.0,6.0,20,0.00,,,-99.99,WeatherLink 5.5,2013-01-27 21:55:00,
2013-01-27 17:00:00,25.7,-8.9,30.38,West,270,1.0,6.0,21,0.00,,,-99.99,WeatherLink 5.5,2013-01-27 22:00:00,
2013-01-27 17:05:00,25.5,-10.1,30.38,West,270,0.0,4.0,20,0.00,,,-99.99,WeatherLink 5.5,2013-01-27 22:05:00,
2013-01-27 17:10:00,25.3,-8.3,30.38,West,270,1.0,7.0,22,0.00,,,-99.99,WeatherLink 5.5,2013-01-27 22:10:00,
2013-01-27 17:15:00,25.1,-9.4,30.39,WSW,247,0.0,4.0,21,0.00,,,-99.99,WeatherLink 5.5,2013-01-27 22:15:00,
2013-01-27 17:20:00,24.8,-9.7,30.39,WNW,292,1.0,7.0,21,0.00,,,-99.99,WeatherLink 5.5,2013-01-27 22:20:00,
2013-01-27 17:25:00,24.7,-9.8,30.39,West,270,1.0,7.0,21,0.00,,,-99.99,WeatherLink 5.5,2013-01-27 22:25:00,
2013-01-27 17:30:00,24.5,-10.9,30.38,WNW,292,0.0,4.0,20,0.00,,,-99.99,WeatherLink 5.5,2013-01-27 22:30:00,
2013-01-27 17:35:00,24.4,-11.0,30.38,West,270,2.0,9.0,20,0.00,,,-99.99,WeatherLink 5.5,2013-01-27 22:35:00,
2013-01-27 17:40:00,24.4,-11.0,30.38,West,270,1.0,8.0,20,0.00,,,-99.99,WeatherLink 5.5,2013-01-27 22:40:00,
2013-01-27 17:45:00,24.4,-11.0,30.39,WNW,292,2.0,14.0,20,0.00,,,-99.99,WeatherLink 5.5,2013-01-27 22:45:00,
2013-01-27 17:50:00,24.2,-11.2,30.39,WNW,292,2.0,8.0,20,0.00,,,-99.99,WeatherLink 5.5,2013-01-27 22:50:00,
2013-01-27 17:55:00,24.1,-12.3,30.39,WNW,292,2.0,6.0,19,0.00,,,-99.99,WeatherLink 5.5,2013-01-27 22:55:00,
2013-01-27 18:00:00,23.9,-11.4,30.40,WNW,292,1.0,6.0,20,0.00,,,-99.99,WeatherLink 5.5,2013-01-27 23:00:00,
2013-01-27 18:05:00,23.9,-12.5,30.40,WNW,292,2.0,13.0,19,0.00,,,-99.99,WeatherLink 5.5,2013-01-27 23:05:00,
2013-01-27 18:10:00,23.8,-12.6,30.40,West,270,4.0,11.0,19,0.00,,,-99.99,WeatherLink 5.5,2013-01-27 23:10:00,
2013-01-27 18:15:00,23.8,-11.5,30.40,West,270,2.0,9.0,20,0.00,,,-99.99,WeatherLink 5.5,2013-01-27 23:15:00,
2013-01-27 18:20:00,23.6,-12.7,30.40,WNW,292,1.0,7.0,19,0.00,,,-99.99,WeatherLink 5.5,2013-01-27 23:20:00,
2013-01-27 18:25:00,23.5,-12.8,30.40,WNW,292,2.0,7.0,19,0.00,,,-99.99,WeatherLink 5.5,2013-01-27 23:25:00,
2013-01-27 18:30:00,23.3,-13.0,30.40,NW,315,0.0,4.0,19,0.00,,,-99.99,WeatherLink 5.5,2013-01-27 23:30:00,
2013-01-27 18:35:00,23.2,-12.0,30.40,SW,225,1.0,6.0,20,0.00,,,-99.99,WeatherLink 5.5,2013-01-27 23:35:00,
2013-01-27 18:40:00,22.9,-12.3,30.40,WNW,292,0.0,2.0,20,0.00,,,-99.99,WeatherLink 5.5,2013-01-27 23:40:00,
2013-01-27 18:45:00,22.7,-11.5,30.42,West,270,0.0,2.0,21,0.00,,,-99.99,WeatherLink 5.5,2013-01-27 23:45:00,
2013-01-27 18:50:00,22.4,-11.7,30.42,NNW,337,0.0,4.0,21,0.00,,,-99.99,WeatherLink 5.5,2013-01-27 23:50:00,
2013-01-27 18:55:00,22.2,-12.9,30.42,NNW,337,0.0,4.0,20,0.00,,,-99.99,WeatherLink 5.5,2013-01-27 23:55:00,
2013-01-27 19:00:00,22.1,-13.0,30.42,WNW,292,1.0,7.0,20,0.00,,,-99.99,WeatherLink 5.5,2013-01-28 00:00:00,
2013-01-27 19:05:00,22.1,-13.0,30.42,NW,315,2.0,8.0,20,0.00,,,-99.99,WeatherLink 5.5,2013-01-28 00:05:00,
2013-01-27 19:10:00,22.1,-13.0,30.42,WNW,292,1.0,6.0,20,0.00,,,-99.99,WeatherLink 5.5,2013-01-28 00:10:00,
2013-01-27 19:15:00,21.9,-13.1,30.42,WNW,292,1.0,4.0,20,0.00,,,-99.99,WeatherLink 5.5,2013-01-28 00:15:00,
2013-01-27 19:20:00,21.9,-12.1,30.42,WNW,292,1.0,10.0,21,0.00,,,-99.99,WeatherLink 5.5,2013-01-28 00:20:00,
2013-01-27 19:25:00,21.8,-13.2,30.42,WNW,292,0.0,2.0,20,0.00,,,-99.99,WeatherLink 5.5,2013-01-28 00:25:00,
2013-01-27 19:30:00,21.6,-13.4,30.42,WNW,292,0.0,4.0,20,0.00,,,-99.99,WeatherLink 5.5,2013-01-28 00:30:00,
2013-01-27 19:35:00,21.5,-11.6,30.42,NW,315,1.0,8.0,22,0.00,,,-99.99,WeatherLink 5.5,2013-01-28 00:35:00,
2013-01-27 19:40:00,21.3,-12.7,30.42,West,270,0.0,4.0,21,0.00,,,-99.99,WeatherLink 5.5,2013-01-28 00:40:00,
2013-01-27 19:45:00,21.1,-10.1,30.42,West,270,0.0,1.0,24,0.00,,,-99.99,WeatherLink 5.5,2013-01-28 00:45:00,
2013-01-27 19:50:00,21.0,-10.2,30.42,West,270,0.0,1.0,24,0.00,,,-99.99,WeatherLink 5.5,2013-01-28 00:50:00,
2013-01-27 19:55:00,20.8,-10.4,30.42,West,270,0.0,2.0,24,0.00,,,-99.99,WeatherLink 5.5,2013-01-28 00:55:00,
2013-01-27 20:00:00,20.5,-8.3,30.42,West,270,0.0,2.0,27,0.00,,,-99.99,WeatherLink 5.5,2013-01-28 01:00:00,
2013-01-27 20:05:00,20.3,-9.2,30.42,WNW,292,0.0,4.0,26,0.00,,,-99.99,WeatherLink 5.5,2013-01-28 01:05:00,
2013-01-27 20:10:00,20.2,-9.3,30.42,WNW,292,0.0,1.0,26,0.00,,,-99.99,WeatherLink 5.5,2013-01-28 01:10:00,
2013-01-27 20:15:00,20.2,-9.3,30.42,West,270,0.0,2.0,26,0.00,,,-99.99,WeatherLink 5.5,2013-01-28 01:15:00,
2013-01-27 20:20:00,20.2,-9.3,30.42,West,270,1.0,6.0,26,0.00,,,-99.99,WeatherLink 5.5,2013-01-28 01:20:00,
2013-01-27 20:25:00,20.2,-8.5,30.42,North,-999,0.0,0.0,27,0.00,,,-99.99,WeatherLink 5.5,2013-01-28 01:25:00,
2013-01-27 20:30:00,20.0,-7.9,30.41,North,-999,0.0,0.0,28,0.00,,,-99.99,WeatherLink 5.5,2013-01-28 01:30:00,
2013-01-27 20:35:00,19.9,-8.0,30.41,North,-999,0.0,0.0,28,0.00,,,-99.99,WeatherLink 5.5,2013-01-28 01:35:00,
2013-01-27 20:40:00,19.6,-7.6,30.41,North,-999,0.0,0.0,29,0.00,,,-99.99,WeatherLink 5.5,2013-01-28 01:40:00,
2013-01-27 20:45:00,19.4,-5.7,30.42,North,-999,0.0,0.0,32,0.00,,,-99.99,WeatherLink 5.5,2013-01-28 01:45:00,
2013-01-27 20:50:00,19.1,-6.0,30.42,North,-999,0.0,0.0,32,0.00,,,-99.99,WeatherLink 5.5,2013-01-28 01:50:00,
2013-01-27 20:55:00,18.8,-6.2,30.42,North,-999,0.0,0.0,32,0.00,,,-99.99,WeatherLink 5.5,2013-01-28 01:55:00,
2013-01-27 21:00:00,18.5,-5.9,30.41,North,-999,0.0,0.0,33,0.00,,,-99.99,WeatherLink 5.5,2013-01-28 02:00:00,
2013-01-27 21:05:00,18.1,-5.6,30.41,North,-999,0.0,0.0,34,0.00,,,-99.99,WeatherLink 5.5,2013-01-28 02:05:00,
2013-01-27 21:10:00,17.8,-5.9,30.41,North,-999,0.0,0.0,34,0.00,,,-99.99,WeatherLink 5.5,2013-01-28 02:10:00,
2013-01-27 21:15:00,17.7,-4.8,30.41,North,-999,0.0,0.0,36,0.00,,,-99.99,WeatherLink 5.5,2013-01-28 02:15:00,
2013-01-27 21:20:00,17.4,-4.5,30.41,North,-999,0.0,0.0,37,0.00,,,-99.99,WeatherLink 5.5,2013-01-28 02:20:00,
2013-01-27 21:25:00,17.2,-4.1,30.41,North,-999,0.0,0.0,38,0.00,,,-99.99,WeatherLink 5.5,2013-01-28 02:25:00,
2013-01-27 21:30:00,17.0,-2.7,30.41,North,-999,0.0,0.0,41,0.00,,,-99.99,WeatherLink 5.5,2013-01-28 02:30:00,
2013-01-27 21:35:00,16.7,-4.6,30.41,North,-999,0.0,0.0,38,0.00,,,-99.99,WeatherLink 5.5,2013-01-28 02:35:00,
2013-01-27 21:40:00,16.6,-3.6,30.41,North,-999,0.0,0.0,40,0.00,,,-99.99,WeatherLink 5.5,2013-01-28 02:40:00,
2013-01-27 21:45:00,16.4,-3.2,30.42,North,-999,0.0,0.0,41,0.00,,,-99.99,WeatherLink 5.5,2013-01-28 02:45:00,
2013-01-27 21:50:00,16.2,-2.9,30.42,North,-999,0.0,0.0,42,0.00,,,-99.99,WeatherLink 5.5,2013-01-28 02:50:00,
2013-01-27 21:55:00,16.1,-3.5,30.42,North,-999,0.0,0.0,41,0.00,,,-99.99,WeatherLink 5.5,2013-01-28 02:55:00,
2013-01-27 22:00:00,15.9,-3.2,30.41,North,-999,0.0,0.0,42,0.00,,,-99.99,WeatherLink 5.5,2013-01-28 03:00:00,
2013-01-27 22:05:00,15.8,-3.3,30.41,North,-999,0.0,0.0,42,0.00,,,-99.99,WeatherLink 5.5,2013-01-28 03:05:00,
2013-01-27 22:10:00,15.6,-2.5,30.41,North,-999,0.0,0.0,44,0.00,,,-99.99,WeatherLink 5.5,2013-01-28 03:10:00,
2013-01-27 22:15:00,15.3,-2.3,30.42,North,-999,0.0,0.0,45,0.00,,,-99.99,WeatherLink 5.5,2013-01-28 03:15:00,
2013-01-27 22:20:00,15.1,-2.5,30.42,North,-999,0.0,0.0,45,0.00,,,-99.99,WeatherLink 5.5,2013-01-28 03:20:00,
2013-01-27 22:25:00,14.9,-2.6,30.42,North,-999,0.0,0.0,45,0.00,,,-99.99,WeatherLink 5.5,2013-01-28 03:25:00,
2013-01-27 22:30:00,14.9,-2.6,30.42,North,-999,0.0,0.0,45,0.00,,,-99.99,WeatherLink 5.5,2013-01-28 03:30:00,
2013-01-27 22:35:00,14.8,-2.7,30.42,North,-999,0.0,0.0,45,0.00,,,-99.99,WeatherLink 5.5,2013-01-28 03:35:00,
2013-01-27 22:40:00,14.6,-2.5,30.42,North,-999,0.0,0.0,46,0.00,,,-99.99,WeatherLink 5.5,2013-01-28 03:40:00,
2013-01-27 22:45:00,14.5,-2.1,30.43,North,-999,0.0,0.0,47,0.00,,,-99.99,WeatherLink 5.5,2013-01-28 03:45:00,
2013-01-27 22:50:00,14.3,-1.8,30.43,North,-999,0.0,0.0,48,0.00,,,-99.99,WeatherLink 5.5,2013-01-28 03:50:00,
2013-01-27 22:55:00,14.0,-2.1,30.43,North,-999,0.0,0.0,48,0.00,,,-99.99,WeatherLink 5.5,2013-01-28 03:55:00,
2013-01-27 23:00:00,13.8,-2.3,30.43,North,-999,0.0,0.0,48,0.00,,,-99.99,WeatherLink 5.5,2013-01-28 04:00:00,
2013-01-27 23:05:00,13.7,-2.0,30.43,North,-999,0.0,0.0,49,0.00,,,-99.99,WeatherLink 5.5,2013-01-28 04:05:00,
2013-01-27 23:10:00,13.7,-1.5,30.43,North,-999,0.0,0.0,50,0.00,,,-99.99,WeatherLink 5.5,2013-01-28 04:10:00,
2013-01-27 23:15:00,13.5,-1.7,30.43,North,-999,0.0,0.0,50,0.00,,,-99.99,WeatherLink 5.5,2013-01-28 04:15:00,
2013-01-27 23:20:00,13.5,-1.3,30.43,North,-999,0.0,0.0,51,0.00,,,-99.99,WeatherLink 5.5,2013-01-28 04:20:00,
2013-01-27 23:25:00,13.5,-1.3,30.43,North,-999,0.0,0.0,51,0.00,,,-99.99,WeatherLink 5.5,2013-01-28 04:25:00,
2013-01-27 23:30:00,13.5,-1.3,30.43,North,-999,0.0,0.0,51,0.00,,,-99.99,WeatherLink 5.5,2013-01-28 04:30:00,
2013-01-27 23:35:00,13.5,-1.3,30.43,North,-999,0.0,0.0,51,0.00,,,-99.99,WeatherLink 5.5,2013-01-28 04:35:00,
2013-01-27 23:40:00,13.5,-0.9,30.43,North,-999,0.0,0.0,52,0.00,,,-99.99,WeatherLink 5.5,2013-01-28 04:40:00,
2013-01-27 23:45:00,13.5,-0.5,30.42,North,-999,0.0,0.0,53,0.00,,,-99.99,WeatherLink 5.5,2013-01-28 04:45:00,
2013-01-27 23:50:00,13.5,-0.9,30.42,North,-999,0.0,0.0,52,0.00,,,-99.99,WeatherLink 5.5,2013-01-28 04:50:00,
2013-01-27 23:55:00,13.5,-0.5,30.42,North,-999,0.0,0.0,53,0.00,,,-99.99,WeatherLink 5.5,2013-01-28 04:55:00,